createdAt,value
2019-06-26T00:01:28.762Z,20.56
2019-06-26T00:03:59.066Z,20.54
2019-06-26T00:06:29.447Z,20.51
2019-06-26T00:09:00.047Z,20.44
2019-06-26T00:11:30.372Z,20.42
2019-06-26T00:14:01.008Z,20.48
2019-06-26T00:16:31.481Z,20.44
2019-06-26T00:19:01.746Z,20.38
2019-06-26T00:21:32.330Z,20.35
2019-06-26T00:24:02.705Z,20.32
2019-06-26T00:26:32.961Z,20.32
2019-06-26T00:29:03.291Z,20.28
2019-06-26T00:31:33.742Z,20.28
2019-06-26T00:34:04.030Z,20.25
2019-06-26T00:36:34.360Z,20.22
2019-06-26T00:39:06.703Z,20.20
2019-06-26T00:41:37.519Z,20.16
2019-06-26T00:44:07.935Z,20.02
2019-06-26T00:46:38.550Z,20.13
2019-06-26T00:49:09.673Z,20.11
2019-06-26T00:51:39.919Z,20.07
2019-06-26T00:54:10.505Z,20.08
2019-06-26T00:56:41.013Z,20.03
2019-06-26T00:59:11.508Z,20.01
2019-06-26T01:01:42.447Z,19.98
2019-06-26T01:04:16.846Z,19.98
2019-06-26T01:06:46.368Z,19.96
2019-06-26T01:09:16.564Z,19.94
2019-06-26T01:11:46.775Z,19.90
2019-06-26T01:14:17.028Z,19.88
2019-06-26T01:16:47.333Z,19.84
2019-06-26T01:19:18.073Z,19.80
2019-06-26T01:21:48.359Z,19.77
2019-06-26T01:24:18.789Z,19.72
2019-06-26T01:26:49.055Z,19.74
2019-06-26T01:29:19.310Z,19.70
2019-06-26T01:31:49.543Z,19.65
2019-06-26T01:34:19.786Z,19.62
2019-06-26T01:36:50.068Z,19.63
2019-06-26T01:39:20.707Z,19.58
2019-06-26T01:41:51.505Z,19.56
2019-06-26T01:44:21.885Z,19.55
2019-06-26T01:46:52.423Z,19.53
2019-06-26T01:49:22.791Z,19.46
2019-06-26T01:51:53.098Z,19.46
2019-06-26T01:54:23.392Z,19.44
2019-06-26T01:56:53.667Z,19.36
2019-06-26T01:59:23.895Z,19.36
2019-06-26T02:01:54.256Z,19.34
2019-06-26T02:04:24.429Z,19.37
2019-06-26T02:06:55.074Z,19.35
2019-06-26T02:09:27.436Z,19.32
2019-06-26T02:12:00.478Z,19.29
2019-06-26T02:14:31.889Z,19.26
2019-06-26T02:17:02.829Z,19.23
2019-06-26T02:19:33.236Z,19.22
2019-06-26T02:22:03.565Z,19.25
2019-06-26T02:24:33.840Z,19.35
2019-06-26T02:27:04.099Z,19.42
2019-06-26T02:29:34.809Z,19.40
2019-06-26T02:32:05.134Z,19.48
2019-06-26T02:34:35.339Z,19.48
2019-06-26T02:37:05.689Z,19.54
2019-06-26T02:39:36.257Z,19.59
2019-06-26T02:42:06.934Z,19.59
2019-06-26T02:44:52.037Z,19.60
2019-06-26T02:47:19.865Z,19.65
2019-06-26T02:49:41.983Z,19.68
2019-06-26T02:52:12.199Z,19.71
2019-06-26T02:54:42.449Z,19.80
2019-06-26T02:57:13.025Z,19.86
2019-06-26T02:59:43.356Z,19.91
2019-06-26T03:02:13.973Z,19.95
2019-06-26T03:04:44.534Z,20.00
2019-06-26T03:07:14.772Z,20.06
2019-06-26T03:09:45.002Z,20.08
2019-06-26T03:12:15.238Z,20.13
2019-06-26T03:14:45.846Z,20.19
2019-06-26T03:17:16.535Z,20.23
2019-06-26T03:19:47.644Z,20.26
2019-06-26T03:22:18.392Z,20.36
2019-06-26T03:24:48.679Z,20.46
2019-06-26T03:27:18.945Z,20.51
2019-06-26T03:29:49.175Z,20.64
2019-06-26T03:32:19.765Z,20.71
2019-06-26T03:34:50.081Z,20.82
2019-06-26T03:37:20.691Z,20.91
2019-06-26T03:39:51.369Z,21.00
2019-06-26T03:42:22.041Z,21.10
2019-06-26T03:44:52.469Z,21.20
2019-06-26T03:47:23.075Z,21.39
2019-06-26T03:49:53.443Z,21.65
2019-06-26T03:52:24.278Z,21.76
2019-06-26T03:54:54.656Z,21.86
2019-06-26T03:57:25.710Z,22.00
2019-06-26T03:59:56.005Z,22.20
2019-06-26T04:02:26.255Z,22.50
2019-06-26T04:04:56.673Z,22.82
2019-06-26T04:07:27.308Z,23.06
2019-06-26T04:09:57.725Z,23.13
2019-06-26T04:12:29.268Z,23.12
2019-06-26T04:14:59.558Z,23.16
2019-06-26T04:17:29.946Z,23.21
2019-06-26T04:20:00.147Z,23.28
2019-06-26T04:22:30.711Z,23.36
2019-06-26T04:25:01.078Z,23.50
2019-06-26T04:27:31.391Z,23.65
2019-06-26T04:30:01.987Z,23.77
2019-06-26T04:32:32.994Z,23.73
2019-06-26T04:35:03.309Z,23.90
2019-06-26T04:37:33.701Z,23.88
2019-06-26T04:40:08.615Z,23.89
2019-06-26T04:42:39.183Z,23.92
2019-06-26T04:45:11.277Z,23.96
2019-06-26T04:47:41.560Z,23.96
2019-06-26T04:50:13.827Z,24.08
2019-06-26T04:52:44.164Z,24.11
2019-06-26T04:55:14.871Z,24.18
2019-06-26T04:57:45.306Z,24.30
2019-06-26T05:00:16.523Z,24.42
2019-06-26T05:02:46.742Z,24.59
2019-06-26T05:05:17.897Z,24.77
2019-06-26T05:07:48.241Z,25.00
2019-06-26T05:10:18.915Z,25.36
2019-06-26T05:12:50.122Z,25.65
2019-06-26T05:15:21.245Z,25.83
2019-06-26T05:17:51.542Z,25.95
2019-06-26T05:20:22.289Z,26.08
2019-06-26T05:22:53.717Z,26.19
2019-06-26T05:25:24.008Z,26.37
2019-06-26T05:27:54.301Z,26.75
2019-06-26T05:30:25.517Z,27.16
2019-06-26T05:32:56.062Z,27.47
2019-06-26T05:35:26.658Z,27.73
2019-06-26T05:37:58.342Z,27.84
2019-06-26T05:40:28.676Z,27.88
2019-06-26T05:42:59.301Z,27.87
2019-06-26T05:45:30.013Z,27.81
2019-06-26T05:48:00.750Z,27.91
2019-06-26T05:50:31.171Z,27.99
2019-06-26T05:53:01.725Z,28.21
2019-06-26T05:55:32.249Z,28.42
2019-06-26T05:58:02.918Z,28.49
2019-06-26T06:00:33.608Z,28.47
2019-06-26T06:03:03.956Z,28.39
2019-06-26T06:05:34.236Z,28.43
2019-06-26T06:08:04.882Z,28.51
2019-06-26T06:10:35.517Z,28.49
2019-06-26T06:13:06.469Z,28.54
2019-06-26T06:15:37.344Z,28.55
2019-06-26T06:18:08.033Z,28.59
2019-06-26T06:20:39.881Z,28.61
2019-06-26T06:23:10.513Z,28.66
2019-06-26T06:25:40.812Z,28.73
2019-06-26T06:28:11.057Z,28.85
2019-06-26T06:30:41.636Z,28.87
2019-06-26T06:33:11.975Z,28.90
2019-06-26T06:35:42.196Z,28.98
2019-06-26T06:38:14.132Z,28.99
2019-06-26T06:40:44.733Z,29.06
2019-06-26T06:43:16.065Z,29.10
2019-06-26T06:45:46.347Z,29.05
2019-06-26T06:48:16.948Z,29.02
2019-06-26T06:50:47.395Z,29.16
2019-06-26T06:53:17.711Z,29.16
2019-06-26T06:55:47.935Z,29.27
2019-06-26T06:58:18.181Z,29.63
2019-06-26T07:00:48.609Z,29.96
2019-06-26T07:03:18.888Z,30.40
2019-06-26T07:05:49.111Z,31.17
2019-06-26T07:08:19.344Z,32.95
2019-06-26T07:10:49.595Z,34.82
2019-06-26T07:13:19.820Z,37.35
2019-06-26T07:15:50.179Z,39.89
2019-06-26T07:18:20.374Z,42.31
2019-06-26T07:20:50.750Z,43.81
2019-06-26T07:23:21.343Z,45.65
2019-06-26T07:25:51.688Z,46.84
2019-06-26T07:28:22.381Z,47.99
2019-06-26T07:30:54.072Z,48.95
2019-06-26T07:33:25.425Z,49.76
2019-06-26T07:35:55.787Z,50.00
2019-06-26T07:38:26.039Z,50.22
2019-06-26T07:40:56.336Z,50.50
2019-06-26T07:43:26.597Z,50.69
2019-06-26T07:45:56.863Z,50.97
2019-06-26T07:48:27.141Z,51.46
2019-06-26T07:50:57.373Z,51.58
2019-06-26T07:53:27.747Z,51.22
2019-06-26T07:55:57.964Z,51.37
2019-06-26T07:58:28.223Z,51.54
2019-06-26T08:00:58.499Z,51.56
2019-06-26T08:03:28.730Z,51.88
2019-06-26T08:05:58.963Z,52.04
2019-06-26T08:08:29.654Z,52.68
2019-06-26T08:11:00.311Z,52.61
2019-06-26T08:13:30.831Z,52.52
2019-06-26T08:16:01.386Z,52.46
2019-06-26T08:18:32.189Z,52.97
2019-06-26T08:21:12.260Z,53.15
2019-06-26T08:23:36.541Z,52.98
2019-06-26T08:26:07.183Z,52.74
2019-06-26T08:28:37.854Z,52.98
2019-06-26T08:31:08.244Z,52.83
2019-06-26T08:33:38.563Z,52.91
2019-06-26T08:36:08.916Z,52.09
2019-06-26T08:38:39.134Z,52.14
2019-06-26T08:41:09.378Z,51.73
2019-06-26T08:43:39.633Z,51.13
2019-06-26T08:46:10.234Z,50.91
2019-06-26T08:48:41.023Z,51.54
2019-06-26T08:51:11.367Z,52.17
2019-06-26T08:53:41.790Z,52.11
2019-06-26T08:56:12.079Z,51.85
2019-06-26T08:58:42.298Z,51.79
2019-06-26T09:01:12.984Z,51.90
2019-06-26T09:03:43.679Z,51.79
2019-06-26T09:06:14.505Z,51.51
2019-06-26T09:08:45.380Z,51.34
2019-06-26T09:11:15.746Z,50.43
2019-06-26T09:13:46.462Z,50.04
2019-06-26T09:16:17.181Z,50.04
2019-06-26T09:18:47.886Z,49.46
2019-06-26T09:21:18.714Z,49.29
2019-06-26T09:23:49.099Z,49.73
2019-06-26T09:26:19.399Z,50.12
2019-06-26T09:28:50.051Z,49.57
2019-06-26T09:31:20.463Z,49.91
2019-06-26T09:33:50.702Z,50.15
2019-06-26T09:36:21.481Z,50.42
2019-06-26T09:38:51.771Z,50.44
2019-06-26T09:41:22.424Z,50.25
2019-06-26T09:43:53.064Z,50.45
2019-06-26T09:46:23.751Z,50.03
2019-06-26T09:48:55.567Z,48.96
2019-06-26T09:51:25.927Z,48.49
2019-06-26T09:53:56.497Z,48.32
2019-06-26T09:56:27.181Z,48.47
2019-06-26T09:58:57.498Z,48.00
2019-06-26T10:01:27.732Z,45.73
2019-06-26T10:03:58.160Z,43.50
2019-06-26T10:06:28.754Z,42.02
2019-06-26T10:08:59.509Z,41.96
2019-06-26T10:11:30.164Z,41.73
2019-06-26T10:14:00.894Z,41.07
2019-06-26T10:16:31.525Z,41.07
2019-06-26T10:19:10.321Z,41.90
2019-06-26T10:21:34.582Z,41.96
2019-06-26T10:24:04.900Z,41.44
2019-06-26T10:26:35.504Z,40.93
2019-06-26T10:29:05.838Z,40.44
2019-06-26T10:31:36.115Z,40.00
2019-06-26T10:34:09.951Z,39.61
2019-06-26T10:36:38.894Z,38.77
2019-06-26T10:39:09.577Z,38.16
2019-06-26T10:41:40.168Z,38.11
2019-06-26T10:44:10.822Z,37.91
2019-06-26T10:46:41.503Z,37.71
2019-06-26T10:49:25.765Z,37.44
2019-06-26T10:51:44.289Z,37.41
2019-06-26T10:54:14.541Z,37.51
2019-06-26T10:56:45.208Z,37.71
2019-06-26T10:59:15.929Z,37.64
2019-06-26T11:01:46.240Z,37.43
2019-06-26T11:04:17.913Z,37.27
2019-06-26T11:06:48.430Z,37.11
2019-06-26T11:09:19.132Z,36.93
2019-06-26T11:11:51.056Z,36.99
2019-06-26T11:14:21.364Z,36.97
2019-06-26T11:16:51.628Z,36.89
2019-06-26T11:19:22.213Z,36.93
2019-06-26T11:21:52.877Z,36.94
2019-06-26T11:24:23.538Z,37.06
2019-06-26T11:26:53.866Z,37.16
2019-06-26T11:29:24.093Z,37.13
2019-06-26T11:31:54.351Z,37.09
2019-06-26T11:34:24.840Z,37.07
2019-06-26T11:37:03.635Z,37.09
2019-06-26T11:39:27.780Z,37.00
2019-06-26T11:41:58.537Z,36.91
2019-06-26T11:44:28.823Z,36.74
2019-06-26T11:47:00.671Z,36.93
2019-06-26T11:49:31.555Z,37.07
2019-06-26T11:52:01.989Z,36.94
2019-06-26T11:54:32.238Z,37.00
2019-06-26T11:57:02.580Z,37.00
2019-06-26T11:59:32.864Z,36.87
2019-06-26T12:02:03.058Z,36.99
2019-06-26T12:04:33.330Z,37.21
2019-06-26T12:07:03.657Z,37.33
2019-06-26T12:09:33.872Z,37.31
2019-06-26T12:12:04.832Z,37.21
2019-06-26T12:14:35.427Z,37.13
2019-06-26T12:17:06.429Z,37.04
2019-06-26T12:19:37.153Z,36.95
2019-06-26T12:22:07.453Z,36.81
2019-06-26T12:24:37.698Z,36.65
2019-06-26T12:27:08.187Z,36.52
2019-06-26T12:29:38.431Z,36.40
2019-06-26T12:32:08.745Z,36.41
2019-06-26T12:34:39.381Z,36.31
2019-06-26T12:37:10.085Z,36.27
2019-06-26T12:39:40.515Z,36.21
2019-06-26T12:42:11.153Z,36.52
2019-06-26T12:44:41.504Z,36.70
2019-06-26T12:47:11.764Z,36.73
2019-06-26T12:49:43.576Z,36.64
2019-06-26T12:52:16.961Z,36.37
2019-06-26T12:54:45.987Z,36.20
2019-06-26T12:57:16.236Z,36.18
2019-06-26T12:59:56.544Z,36.20
2019-06-26T13:02:18.792Z,36.23
2019-06-26T13:04:49.516Z,36.29
2019-06-26T13:07:19.841Z,36.34
2019-06-26T13:09:50.463Z,36.20
2019-06-26T13:12:21.140Z,36.18
2019-06-26T13:14:51.478Z,36.17
2019-06-26T13:17:21.833Z,36.18
2019-06-26T13:19:52.077Z,36.25
2019-06-26T13:22:22.357Z,36.22
2019-06-26T13:24:53.364Z,36.13
2019-06-26T13:27:25.157Z,35.99
2019-06-26T13:29:56.701Z,35.72
2019-06-26T13:32:27.010Z,35.77
2019-06-26T13:34:59.811Z,35.82
2019-06-26T13:37:30.127Z,35.89
2019-06-26T13:40:00.725Z,35.85
2019-06-26T13:42:31.063Z,35.84
2019-06-26T13:45:01.459Z,35.86
2019-06-26T13:47:33.339Z,35.88
2019-06-26T13:50:06.623Z,35.86
2019-06-26T13:52:36.950Z,35.80
2019-06-26T13:55:08.543Z,35.74
2019-06-26T13:57:38.962Z,35.72
2019-06-26T14:00:11.267Z,35.60
2019-06-26T14:02:41.931Z,35.53
2019-06-26T14:05:13.350Z,35.31
2019-06-26T14:07:43.542Z,35.33
2019-06-26T14:10:16.176Z,35.36
2019-06-26T14:12:46.485Z,35.41
2019-06-26T14:15:19.265Z,35.42
2019-06-26T14:17:49.628Z,35.41
2019-06-26T14:20:21.205Z,35.38
2019-06-26T14:22:51.849Z,35.36
2019-06-26T14:25:22.705Z,35.32
2019-06-26T14:27:52.995Z,35.32
2019-06-26T14:30:27.695Z,35.37
2019-06-26T14:32:56.189Z,35.38
2019-06-26T14:35:27.036Z,35.42
2019-06-26T14:37:57.830Z,35.51
2019-06-26T14:40:28.141Z,35.55
2019-06-26T14:42:58.821Z,35.68
2019-06-26T14:45:29.182Z,35.62
2019-06-26T14:47:59.811Z,35.56
2019-06-26T14:50:30.215Z,35.50
2019-06-26T14:53:00.539Z,35.44
2019-06-26T14:55:30.917Z,35.42
2019-06-26T14:58:01.170Z,35.36
2019-06-26T15:00:31.454Z,35.37
2019-06-26T15:03:01.702Z,35.42
2019-06-26T15:05:31.979Z,35.45
2019-06-26T15:08:03.210Z,35.43
2019-06-26T15:10:33.815Z,35.43
2019-06-26T15:13:04.499Z,35.43
2019-06-26T15:15:35.180Z,35.44
2019-06-26T15:18:05.802Z,35.40
2019-06-26T15:20:36.069Z,35.36
2019-06-26T15:23:06.433Z,35.31
2019-06-26T15:25:36.762Z,35.27
2019-06-26T15:28:10.371Z,35.24
2019-06-26T15:30:41.185Z,35.20
2019-06-26T15:33:11.825Z,35.18
2019-06-26T15:35:42.814Z,35.17
2019-06-26T15:38:13.107Z,35.16
2019-06-26T15:40:44.968Z,35.13
2019-06-26T15:43:15.615Z,35.08
2019-06-26T15:45:45.942Z,35.05
2019-06-26T15:48:16.181Z,34.93
2019-06-26T15:50:46.773Z,34.77
2019-06-26T15:53:17.106Z,34.77
2019-06-26T15:55:47.530Z,34.70
2019-06-26T15:58:17.800Z,34.67
2019-06-26T16:00:48.060Z,34.47
2019-06-26T16:03:18.475Z,34.35
2019-06-26T16:05:52.167Z,34.35
2019-06-26T16:08:22.571Z,34.19
2019-06-26T16:10:52.813Z,34.09
2019-06-26T16:13:23.084Z,33.95
2019-06-26T16:15:53.389Z,33.83
2019-06-26T16:18:25.251Z,33.78
2019-06-26T16:20:55.551Z,33.74
2019-06-26T16:23:25.802Z,33.75
2019-06-26T16:25:56.048Z,33.74
2019-06-26T16:28:26.587Z,33.70
2019-06-26T16:30:57.193Z,33.66
2019-06-26T16:33:28.394Z,33.68
2019-06-26T16:36:00.568Z,33.64
2019-06-26T16:38:30.900Z,33.68
2019-06-26T16:41:01.167Z,33.72
2019-06-26T16:43:31.430Z,33.74
2019-06-26T16:46:01.706Z,33.77
2019-06-26T16:48:31.962Z,33.76
2019-06-26T16:51:02.368Z,33.77
2019-06-26T16:53:35.483Z,33.79
2019-06-26T16:56:05.569Z,33.78
2019-06-26T16:58:35.857Z,33.68
2019-06-26T17:01:07.564Z,33.56
2019-06-26T17:03:37.862Z,33.47
2019-06-26T17:06:08.603Z,33.42
2019-06-26T17:08:38.934Z,33.41
2019-06-26T17:11:09.695Z,33.42
2019-06-26T17:13:40.526Z,33.37
2019-06-26T17:16:10.840Z,33.34
2019-06-26T17:18:42.678Z,33.29
2019-06-26T17:21:13.431Z,33.22
2019-06-26T17:23:43.953Z,33.14
2019-06-26T17:26:14.228Z,33.11
2019-06-26T17:28:44.534Z,33.03
2019-06-26T17:31:15.394Z,32.96
2019-06-26T17:33:45.669Z,32.83
2019-06-26T17:36:15.921Z,32.73
2019-06-26T17:38:46.594Z,32.62
2019-06-26T17:41:17.515Z,32.51
2019-06-26T17:43:48.203Z,32.43
2019-06-26T17:46:18.490Z,32.34
2019-06-26T17:48:48.814Z,32.34
2019-06-26T17:51:19.055Z,32.27
2019-06-26T17:53:49.306Z,32.19
2019-06-26T17:56:19.909Z,32.13
2019-06-26T17:58:50.701Z,32.04
2019-06-26T18:01:20.989Z,31.96
2019-06-26T18:03:51.294Z,31.89
2019-06-26T18:06:23.988Z,31.79
2019-06-26T18:08:54.338Z,31.75
2019-06-26T18:11:24.926Z,31.69
2019-06-26T18:13:55.255Z,31.59
2019-06-26T18:16:25.506Z,31.51
2019-06-26T18:18:56.802Z,31.39
2019-06-26T18:21:27.404Z,31.28
2019-06-26T18:23:57.676Z,31.16
2019-06-26T18:26:27.922Z,31.01
2019-06-26T18:28:58.153Z,30.87
2019-06-26T18:31:30.591Z,30.72
2019-06-26T18:34:00.431Z,30.56
2019-06-26T18:36:33.729Z,30.38
2019-06-26T18:39:06.698Z,30.23
2019-06-26T18:41:37.635Z,30.04
2019-06-26T18:44:08.082Z,29.89
2019-06-26T18:46:38.374Z,29.71
2019-06-26T18:49:08.611Z,29.56
2019-06-26T18:51:38.838Z,29.38
2019-06-26T18:54:09.057Z,29.24
2019-06-26T18:56:39.371Z,29.11
2019-06-26T18:59:09.969Z,28.98
2019-06-26T19:01:40.269Z,28.85
2019-06-26T19:04:11.283Z,28.70
2019-06-26T19:06:41.532Z,28.57
2019-06-26T19:09:12.107Z,28.45
2019-06-26T19:11:42.489Z,28.33
2019-06-26T19:14:14.386Z,28.19
2019-06-26T19:16:44.791Z,28.07
2019-06-26T19:19:15.218Z,27.96
2019-06-26T19:21:45.317Z,27.81
2019-06-26T19:24:15.585Z,27.70
2019-06-26T19:26:46.287Z,27.59
2019-06-26T19:29:16.595Z,27.47
2019-06-26T19:31:46.926Z,27.35
2019-06-26T19:34:17.310Z,27.27
2019-06-26T19:36:50.536Z,27.18
2019-06-26T19:39:21.102Z,27.13
2019-06-26T19:41:51.732Z,27.04
2019-06-26T19:44:21.948Z,26.97
2019-06-26T19:46:52.276Z,26.93
2019-06-26T19:49:22.592Z,26.88
2019-06-26T19:51:53.156Z,26.85
2019-06-26T19:54:27.769Z,26.84
2019-06-26T19:56:55.758Z,26.83
2019-06-26T19:59:26.075Z,26.80
2019-06-26T20:01:56.316Z,26.78
2019-06-26T20:04:26.633Z,26.75
2019-06-26T20:06:56.877Z,26.72
2019-06-26T20:09:27.373Z,26.67
2019-06-26T20:11:57.602Z,26.62
2019-06-26T20:14:27.939Z,26.57
2019-06-26T20:16:58.139Z,26.53
2019-06-26T20:19:28.850Z,26.50
2019-06-26T20:21:59.566Z,26.36
2019-06-26T20:24:43.585Z,26.50
2019-06-26T20:27:01.941Z,26.51
2019-06-26T20:29:32.249Z,26.51
2019-06-26T20:32:02.611Z,26.53
2019-06-26T20:34:33.185Z,26.57
2019-06-26T20:37:03.890Z,26.61
2019-06-26T20:39:34.594Z,26.62
2019-06-26T20:42:05.056Z,26.60
2019-06-26T20:44:35.279Z,26.62
2019-06-26T20:47:05.689Z,26.60
2019-06-26T20:49:52.178Z,26.61
2019-06-26T20:52:10.748Z,26.63
2019-06-26T20:54:41.509Z,26.66
2019-06-26T20:57:11.863Z,26.68
2019-06-26T20:59:42.753Z,26.68
2019-06-26T21:02:13.080Z,26.67
2019-06-26T21:04:43.340Z,26.66
2019-06-26T21:07:14.103Z,26.61
2019-06-26T21:09:44.882Z,26.62
2019-06-26T21:12:15.854Z,26.58
2019-06-26T21:14:46.616Z,26.47
2019-06-26T21:17:17.401Z,26.38
2019-06-26T21:19:48.066Z,26.32
2019-06-26T21:22:18.459Z,26.24
2019-06-26T21:24:49.174Z,26.17
2019-06-26T21:27:32.172Z,26.13
2019-06-26T21:30:04.249Z,26.07
2019-06-26T21:32:38.684Z,26.00
2019-06-26T21:35:11.112Z,25.94
2019-06-26T21:37:41.825Z,25.89
2019-06-26T21:40:12.717Z,25.85
2019-06-26T21:42:43.507Z,25.82
2019-06-26T21:45:14.891Z,25.81
2019-06-26T21:47:45.834Z,25.77
2019-06-26T21:50:18.357Z,25.72
2019-06-26T21:52:51.014Z,25.67
2019-06-26T21:55:33.925Z,25.61
2019-06-26T21:58:12.659Z,25.53
2019-06-26T22:01:01.120Z,25.49
2019-06-26T22:03:50.020Z,25.42
2019-06-26T22:06:37.637Z,25.36
2019-06-26T22:09:13.050Z,25.30
2019-06-26T22:11:48.709Z,25.23
2019-06-26T22:14:27.691Z,25.17
2019-06-26T22:16:58.266Z,25.12
2019-06-26T22:19:28.647Z,25.08
2019-06-26T22:21:59.560Z,25.06
2019-06-26T22:24:29.876Z,25.07
2019-06-26T22:27:00.632Z,25.07
2019-06-26T22:29:31.080Z,25.05
2019-06-26T22:32:01.814Z,25.06
2019-06-26T22:34:32.100Z,25.06
2019-06-26T22:37:03.174Z,25.09
2019-06-26T22:39:33.830Z,25.16
2019-06-26T22:42:04.675Z,25.25
2019-06-26T22:44:34.997Z,25.39
2019-06-26T22:47:05.998Z,25.51
2019-06-26T22:49:36.309Z,25.59
2019-06-26T22:52:07.013Z,25.76
2019-06-26T22:54:37.762Z,25.83
2019-06-26T22:57:08.155Z,26.01
2019-06-26T22:59:38.784Z,26.07
2019-06-26T23:02:09.825Z,26.18
2019-06-26T23:04:40.323Z,26.33
2019-06-26T23:07:10.624Z,26.42
2019-06-26T23:09:40.858Z,26.45
2019-06-26T23:12:11.512Z,26.49
2019-06-26T23:14:42.401Z,26.53
2019-06-26T23:17:12.779Z,26.58
2019-06-26T23:19:43.039Z,26.54
2019-06-26T23:22:14.599Z,26.49
2019-06-26T23:24:44.917Z,26.50
2019-06-26T23:27:15.530Z,26.49
2019-06-26T23:29:45.845Z,26.53
2019-06-26T23:32:16.165Z,26.56
2019-06-26T23:34:46.406Z,26.49
2019-06-26T23:37:16.660Z,26.44
2019-06-26T23:39:46.904Z,26.38
2019-06-26T23:42:17.163Z,26.38
2019-06-26T23:44:47.389Z,26.25
2019-06-26T23:47:18.014Z,26.15
2019-06-26T23:49:48.662Z,26.07
2019-06-26T23:52:19.015Z,25.97
2019-06-26T23:54:49.342Z,25.91
2019-06-26T23:57:19.621Z,25.81
2019-06-26T23:59:49.865Z,25.71
